createdAt,value
2022-11-03T00:00:12.774Z,99222.06
2022-11-03T00:01:16.870Z,99228.16
2022-11-03T00:02:19.668Z,99226.53
2022-11-03T00:03:23.461Z,99228.38
2022-11-03T00:04:26.122Z,99224.16
2022-11-03T00:05:46.878Z,99226.75
2022-11-03T00:06:51.599Z,99235.56
2022-11-03T00:07:54.184Z,99227.13
2022-11-03T00:08:59.789Z,99225.59
2022-11-03T00:10:02.361Z,99222.28
2022-11-03T00:11:11.637Z,99223.38
2022-11-03T00:12:14.362Z,99214.91
2022-11-03T00:13:18.020Z,99218.41
2022-11-03T00:14:23.179Z,99214.22
2022-11-03T00:15:25.768Z,99214.38
2022-11-03T00:16:29.449Z,99219.66
2022-11-03T00:17:32.042Z,99216.31
2022-11-03T00:18:35.989Z,99214.63
2022-11-03T00:19:38.611Z,99209.41
2022-11-03T00:20:42.303Z,99213.59
2022-11-03T00:21:46.741Z,99211.91
2022-11-03T00:22:49.343Z,99212.84
2022-11-03T00:23:53.524Z,99216.31
2022-11-03T00:24:56.241Z,99220.78
2022-11-03T00:26:10.479Z,99214.03
2022-11-03T00:27:13.110Z,99215.91
2022-11-03T00:28:16.699Z,99219.44
2022-11-03T00:29:19.327Z,99213.59
2022-11-03T00:30:24.413Z,99215.47
2022-11-03T00:31:28.384Z,99220.84
2022-11-03T00:32:32.102Z,99223.50
2022-11-03T00:33:34.918Z,99216.72
2022-11-03T00:34:38.573Z,99222.88
2022-11-03T00:35:41.210Z,99221.25
2022-11-03T00:36:45.880Z,99224.84
2022-11-03T00:37:48.589Z,99222.44
2022-11-03T00:38:52.785Z,99226.81
2022-11-03T00:39:55.411Z,99225.19
2022-11-03T00:41:00.351Z,99223.66
2022-11-03T00:42:02.973Z,99234.13
2022-11-03T00:43:07.106Z,99224.84
2022-11-03T00:44:11.173Z,99222.25
2022-11-03T00:45:14.849Z,99224.06
2022-11-03T00:46:19.655Z,99227.59
2022-11-03T00:47:24.373Z,99229.47
2022-11-03T00:48:29.991Z,99229.66
2022-11-03T00:49:33.743Z,99229.84
2022-11-03T00:50:36.352Z,99229.09
2022-11-03T00:51:39.929Z,99235.28
2022-11-03T00:52:42.551Z,99235.28
2022-11-03T00:53:47.773Z,99232.00
2022-11-03T00:54:54.325Z,99233.88
2022-11-03T00:55:59.232Z,99233.13
2022-11-03T00:57:01.821Z,99234.06
2022-11-03T00:58:05.570Z,99229.03
2022-11-03T00:59:09.342Z,99230.75
2022-11-03T01:00:14.122Z,99232.50
2022-11-03T01:01:19.928Z,99243.72
2022-11-03T01:02:23.778Z,99236.97
2022-11-03T01:03:26.578Z,99247.31
2022-11-03T01:04:47.535Z,99241.41
2022-11-03T01:06:08.618Z,99251.81
2022-11-03T01:07:12.270Z,99239.91
2022-11-03T01:08:14.940Z,99251.13
2022-11-03T01:09:19.560Z,99245.09
2022-11-03T01:10:22.240Z,99245.09
2022-11-03T01:11:43.691Z,99240.16
2022-11-03T01:12:47.443Z,99242.94
2022-11-03T01:13:50.161Z,99240.41
2022-11-03T01:14:54.983Z,99242.22
2022-11-03T01:15:58.876Z,99237.97
2022-11-03T01:17:04.283Z,99242.31
2022-11-03T01:18:06.882Z,99238.97
2022-11-03T01:19:10.691Z,99239.88
2022-11-03T01:20:13.311Z,99231.31
2022-11-03T01:21:17.141Z,99239.88
2022-11-03T01:22:21.766Z,99236.47
2022-11-03T01:23:24.653Z,99237.38
2022-11-03T01:24:28.552Z,99235.63
2022-11-03T01:25:31.740Z,99234.84
2022-11-03T01:26:35.380Z,99235.75
2022-11-03T01:27:38.022Z,99240.91
2022-11-03T01:28:43.061Z,99237.56
2022-11-03T01:29:45.831Z,99247.91
2022-11-03T01:30:49.493Z,99239.34
2022-11-03T01:31:53.291Z,99245.47
2022-11-03T01:32:57.322Z,99242.94
2022-11-03T01:34:01.024Z,99234.38
2022-11-03T01:35:04.101Z,99234.44
2022-11-03T01:36:08.392Z,99233.59
2022-11-03T01:37:10.960Z,99233.66
2022-11-03T01:38:14.644Z,99237.13
2022-11-03T01:39:18.572Z,99234.63
2022-11-03T01:40:22.353Z,99229.53
2022-11-03T01:41:26.503Z,99227.03
2022-11-03T01:42:30.180Z,99229.66
2022-11-03T01:43:32.943Z,99227.13
2022-11-03T01:44:38.408Z,99222.97
2022-11-03T01:45:41.134Z,99220.50
2022-11-03T01:46:50.029Z,99227.47
2022-11-03T01:47:53.723Z,99230.97
2022-11-03T01:49:01.344Z,99223.34
2022-11-03T01:50:07.601Z,99223.44
2022-11-03T01:51:11.573Z,99226.91
2022-11-03T01:52:19.943Z,99229.41
2022-11-03T01:53:23.070Z,99224.31
2022-11-03T01:54:28.338Z,99226.91
2022-11-03T01:55:33.012Z,99223.56
2022-11-03T01:56:38.640Z,99230.47
2022-11-03T01:57:44.083Z,99221.09
2022-11-03T01:58:49.582Z,99230.63
2022-11-03T01:59:52.630Z,99219.53
2022-11-03T02:01:03.320Z,99221.34
2022-11-03T02:02:06.344Z,99225.69
2022-11-03T02:03:10.423Z,99218.88
2022-11-03T02:04:17.743Z,99220.69
2022-11-03T02:05:24.240Z,99220.78
2022-11-03T02:06:28.242Z,99218.34
2022-11-03T02:07:36.763Z,99220.19
2022-11-03T02:08:44.538Z,99218.53
2022-11-03T02:09:48.229Z,99224.72
2022-11-03T02:10:51.566Z,99229.13
2022-11-03T02:12:10.102Z,99216.34
2022-11-03T02:13:17.081Z,99224.16
2022-11-03T02:14:21.049Z,99219.97
2022-11-03T02:15:24.130Z,99221.69
2022-11-03T02:16:29.012Z,99216.59
2022-11-03T02:17:33.689Z,99220.91
2022-11-03T02:18:37.338Z,99218.34
2022-11-03T02:19:43.810Z,99226.13
2022-11-03T02:20:48.219Z,99217.50
2022-11-03T02:21:58.741Z,99215.84
2022-11-03T02:23:19.171Z,99216.78
2022-11-03T02:24:26.717Z,99212.59
2022-11-03T02:25:39.083Z,99223.72
2022-11-03T02:26:42.622Z,99215.22
2022-11-03T02:27:46.719Z,99219.50
2022-11-03T02:28:50.769Z,99221.25
2022-11-03T02:29:53.663Z,99217.00
2022-11-03T02:31:05.471Z,99223.88
2022-11-03T02:32:12.463Z,99223.13
2022-11-03T02:33:25.611Z,99223.97
2022-11-03T02:34:32.681Z,99218.00
2022-11-03T02:35:42.139Z,99223.97
2022-11-03T02:36:48.833Z,99220.56
2022-11-03T02:37:55.960Z,99230.88
2022-11-03T02:39:01.250Z,99227.41
2022-11-03T02:40:06.713Z,99225.72
2022-11-03T02:41:12.641Z,99226.63
2022-11-03T02:42:16.234Z,99231.81
2022-11-03T02:43:20.420Z,99228.44
2022-11-03T02:44:25.717Z,99230.19
2022-11-03T02:45:28.859Z,99226.91
2022-11-03T02:46:33.500Z,99226.06
2022-11-03T02:47:37.877Z,99234.66
2022-11-03T02:48:41.808Z,99225.28
2022-11-03T02:49:47.949Z,99232.16
2022-11-03T02:50:51.728Z,99231.31
2022-11-03T02:52:00.872Z,99238.25
2022-11-03T02:53:04.831Z,99231.41
2022-11-03T02:54:12.332Z,99229.81
2022-11-03T02:55:19.438Z,99233.31
2022-11-03T02:56:26.057Z,99228.22
2022-11-03T02:57:30.699Z,99230.88
2022-11-03T02:58:39.186Z,99232.69
2022-11-03T02:59:44.699Z,99230.13
2022-11-03T03:00:51.619Z,99225.03
2022-11-03T03:01:56.995Z,99230.22
2022-11-03T03:03:04.710Z,99222.50
2022-11-03T03:04:10.168Z,99226.88
2022-11-03T03:05:16.463Z,99227.72
2022-11-03T03:06:24.064Z,99230.28
2022-11-03T03:07:30.291Z,99231.25
2022-11-03T03:08:33.503Z,99229.59
2022-11-03T03:09:43.113Z,99233.13
2022-11-03T03:10:47.283Z,99225.56
2022-11-03T03:11:54.449Z,99233.22
2022-11-03T03:12:58.604Z,99232.28
2022-11-03T03:14:02.257Z,99235.72
2022-11-03T03:15:08.329Z,99232.38
2022-11-03T03:16:13.282Z,99229.06
2022-11-03T03:17:21.012Z,99230.81
2022-11-03T03:18:26.671Z,99241.09
2022-11-03T03:19:39.443Z,99233.34
2022-11-03T03:20:45.615Z,99234.06
2022-11-03T03:21:51.161Z,99236.47
2022-11-03T03:22:57.059Z,99231.13
2022-11-03T03:24:04.633Z,99231.78
2022-11-03T03:25:12.422Z,99238.44
2022-11-03T03:26:21.635Z,99239.25
2022-11-03T03:27:27.310Z,99243.56
2022-11-03T03:28:34.153Z,99242.75
2022-11-03T03:29:41.559Z,99242.88
2022-11-03T03:30:46.891Z,99240.34
2022-11-03T03:31:53.421Z,99247.22
2022-11-03T03:32:58.282Z,99239.56
2022-11-03T03:34:10.302Z,99237.06
2022-11-03T03:35:22.142Z,99236.25
2022-11-03T03:36:26.699Z,99240.63
2022-11-03T03:37:31.902Z,99235.53
2022-11-03T03:38:37.540Z,99240.78
2022-11-03T03:39:42.481Z,99227.16
2022-11-03T03:40:47.542Z,99231.41
2022-11-03T03:41:51.401Z,99230.66
2022-11-03T03:42:55.605Z,99236.63
2022-11-03T03:44:00.982Z,99234.88
2022-11-03T03:45:05.025Z,99236.69
2022-11-03T03:46:09.542Z,99233.28
2022-11-03T03:47:14.992Z,99238.34
2022-11-03T03:48:19.425Z,99230.72
2022-11-03T03:49:22.194Z,99240.19
2022-11-03T03:50:26.330Z,99239.34
2022-11-03T03:51:29.671Z,99230.78
2022-11-03T03:52:36.121Z,99235.00
2022-11-03T03:53:38.966Z,99229.81
2022-11-03T03:54:42.802Z,99228.09
2022-11-03T03:55:47.597Z,99224.69
2022-11-03T03:56:55.558Z,99227.34
2022-11-03T03:58:00.534Z,99229.88
2022-11-03T03:59:04.880Z,99237.53
2022-11-03T04:00:09.736Z,99233.22
2022-11-03T04:01:16.200Z,99245.22
2022-11-03T04:02:19.005Z,99236.69
2022-11-03T04:03:24.537Z,99235.84
2022-11-03T04:04:27.142Z,99235.00
2022-11-03T04:05:30.876Z,99229.81
2022-11-03T04:06:33.556Z,99233.16
2022-11-03T04:07:49.150Z,99231.44
2022-11-03T04:08:51.772Z,99235.63
2022-11-03T04:09:55.557Z,99230.50
2022-11-03T04:11:16.864Z,99228.69
2022-11-03T04:12:37.844Z,99229.44
2022-11-03T04:14:00.088Z,99228.53
2022-11-03T04:15:21.210Z,99231.91
2022-11-03T04:16:42.306Z,99227.53
2022-11-03T04:18:05.871Z,99230.06
2022-11-03T04:19:28.982Z,99231.63
2022-11-03T04:20:50.107Z,99234.09
2022-11-03T04:22:11.289Z,99230.47
2022-11-03T04:23:15.157Z,99229.47
2022-11-03T04:24:17.899Z,99231.00
2022-11-03T04:25:21.559Z,99230.69
2022-11-03T04:26:24.462Z,99229.69
2022-11-03T04:27:31.121Z,99229.41
2022-11-03T04:28:33.765Z,99232.78
2022-11-03T04:29:38.919Z,99242.94
2022-11-03T04:30:41.999Z,99225.72
2022-11-03T04:31:46.187Z,99232.44
2022-11-03T04:32:49.944Z,99235.78
2022-11-03T04:33:53.577Z,99229.63
2022-11-03T04:34:56.220Z,99232.88
2022-11-03T04:36:01.007Z,99237.88
2022-11-03T04:37:06.570Z,99230.91
2022-11-03T04:38:21.479Z,99231.63
2022-11-03T04:39:24.088Z,99230.63
2022-11-03T04:40:28.120Z,99229.66
2022-11-03T04:41:34.538Z,99227.84
2022-11-03T04:42:37.242Z,99228.56
2022-11-03T04:43:40.920Z,99227.56
2022-11-03T04:44:45.176Z,99218.84
2022-11-03T04:45:49.967Z,99228.13
2022-11-03T04:46:54.507Z,99220.25
2022-11-03T04:47:59.854Z,99220.97
2022-11-03T04:49:02.617Z,99223.47
2022-11-03T04:50:08.559Z,99220.00
2022-11-03T04:51:15.575Z,99220.81
2022-11-03T04:52:21.576Z,99221.63
2022-11-03T04:53:24.599Z,99213.84
2022-11-03T04:54:28.695Z,99206.88
2022-11-03T04:55:31.338Z,99207.69
2022-11-03T04:56:35.177Z,99211.03
2022-11-03T04:57:37.871Z,99211.84
2022-11-03T04:58:41.879Z,99209.25
2022-11-03T04:59:48.798Z,99206.53
2022-11-03T05:00:52.891Z,99209.88
2022-11-03T05:01:57.226Z,99209.00
2022-11-03T05:02:59.940Z,99210.66
2022-11-03T05:04:03.649Z,99205.44
2022-11-03T05:05:16.071Z,99207.16
2022-11-03T05:06:24.027Z,99196.88
2022-11-03T05:07:35.121Z,99209.72
2022-11-03T05:08:37.838Z,99197.66
2022-11-03T05:09:42.987Z,99201.97
2022-11-03T05:10:46.509Z,99196.75
2022-11-03T05:11:50.527Z,99196.75
2022-11-03T05:12:54.331Z,99200.16
2022-11-03T05:14:01.439Z,99192.53
2022-11-03T05:15:11.408Z,99187.38
2022-11-03T05:16:15.627Z,99194.31
2022-11-03T05:17:24.539Z,99184.84
2022-11-03T05:18:31.230Z,99187.47
2022-11-03T05:19:34.849Z,99185.81
2022-11-03T05:20:41.241Z,99191.03
2022-11-03T05:21:44.956Z,99193.72
2022-11-03T05:22:47.550Z,99191.31
2022-11-03T05:23:54.307Z,99186.28
2022-11-03T05:24:59.019Z,99186.38
2022-11-03T05:26:03.668Z,99191.69
2022-11-03T05:27:09.756Z,99195.34
2022-11-03T05:28:22.900Z,99190.44
2022-11-03T05:29:28.162Z,99197.44
2022-11-03T05:30:32.932Z,99202.72
2022-11-03T05:31:38.599Z,99201.16
2022-11-03T05:32:42.599Z,99202.13
2022-11-03T05:33:47.796Z,99205.59
2022-11-03T05:34:53.137Z,99203.91
2022-11-03T05:35:57.178Z,99204.88
2022-11-03T05:37:01.416Z,99209.25
2022-11-03T05:38:07.570Z,99205.09
2022-11-03T05:39:24.600Z,99206.13
2022-11-03T05:40:27.519Z,99207.91
2022-11-03T05:41:32.269Z,99205.47
2022-11-03T05:42:37.137Z,99206.31
2022-11-03T05:43:40.923Z,99208.88
2022-11-03T05:44:44.816Z,99208.88
2022-11-03T05:45:52.659Z,99209.72
2022-11-03T05:46:55.464Z,99205.47
2022-11-03T05:48:00.039Z,99206.34
2022-11-03T05:49:04.067Z,99206.41
2022-11-03T05:50:20.856Z,99217.53
2022-11-03T05:51:25.885Z,99207.25
2022-11-03T05:52:30.250Z,99212.47
2022-11-03T05:53:36.468Z,99217.69
2022-11-03T05:54:40.197Z,99215.09
2022-11-03T05:55:43.220Z,99219.34
2022-11-03T05:56:46.927Z,99215.88
2022-11-03T05:57:49.529Z,99216.63
2022-11-03T05:58:53.969Z,99207.16
2022-11-03T05:59:56.940Z,99214.72
2022-11-03T06:01:02.818Z,99211.22
2022-11-03T06:02:12.782Z,99215.41
2022-11-03T06:03:18.219Z,99210.16
2022-11-03T06:04:24.584Z,99204.09
2022-11-03T06:05:28.809Z,99204.88
2022-11-03T06:06:36.617Z,99204.75
2022-11-03T06:07:39.276Z,99209.78
2022-11-03T06:08:45.891Z,99205.41
2022-11-03T06:09:48.957Z,99213.03
2022-11-03T06:10:54.839Z,99212.06
2022-11-03T06:11:59.826Z,99212.78
2022-11-03T06:13:07.183Z,99212.59
2022-11-03T06:14:16.578Z,99215.09
2022-11-03T06:15:29.478Z,99215.00
2022-11-03T06:16:41.891Z,99215.69
2022-11-03T06:17:44.498Z,99221.63
2022-11-03T06:18:48.198Z,99214.59
2022-11-03T06:19:53.241Z,99217.91
2022-11-03T06:20:59.529Z,99216.97
2022-11-03T06:22:07.155Z,99223.63
2022-11-03T06:23:12.990Z,99220.84
2022-11-03T06:24:17.958Z,99223.22
2022-11-03T06:25:31.731Z,99217.03
2022-11-03T06:26:34.379Z,99210.03
2022-11-03T06:27:38.076Z,99215.06
2022-11-03T06:28:41.956Z,99219.16
2022-11-03T06:29:48.388Z,99214.81
2022-11-03T06:30:52.322Z,99215.44
2022-11-03T06:31:58.564Z,99211.00
2022-11-03T06:33:02.678Z,99218.53
2022-11-03T06:34:19.777Z,99210.59
2022-11-03T06:35:23.462Z,99211.31
2022-11-03T06:36:28.319Z,99210.31
2022-11-03T06:37:33.765Z,99218.72
2022-11-03T06:38:37.490Z,99215.94
2022-11-03T06:39:40.207Z,99209.69
2022-11-03T06:40:43.948Z,99212.06
2022-11-03T06:41:46.646Z,99209.28
2022-11-03T06:42:50.350Z,99207.34
2022-11-03T06:43:54.582Z,99212.31
2022-11-03T06:44:57.224Z,99219.00
2022-11-03T06:46:02.957Z,99208.50
2022-11-03T06:47:18.729Z,99209.97
2022-11-03T06:48:25.197Z,99215.69
2022-11-03T06:49:29.980Z,99212.00
2022-11-03T06:50:34.376Z,99206.72
2022-11-03T06:51:38.329Z,99212.50
2022-11-03T06:52:45.352Z,99209.75
2022-11-03T06:53:49.949Z,99207.81
2022-11-03T06:54:56.209Z,99208.38
2022-11-03T06:56:00.655Z,99206.44
2022-11-03T06:57:03.319Z,99207.88
2022-11-03T06:58:17.340Z,99208.34
2022-11-03T06:59:20.475Z,99207.31
2022-11-03T07:00:34.602Z,99205.25
2022-11-03T07:01:39.150Z,99198.00
2022-11-03T07:02:57.028Z,99200.06
2022-11-03T07:04:02.537Z,99195.28
2022-11-03T07:05:10.141Z,99194.78
2022-11-03T07:06:16.808Z,99187.41
2022-11-03T07:07:19.500Z,99195.59
2022-11-03T07:08:25.295Z,99184.91
2022-11-03T07:09:29.200Z,99187.03
2022-11-03T07:10:33.303Z,99190.03
2022-11-03T07:11:39.284Z,99192.25
2022-11-03T07:12:42.290Z,99198.69
2022-11-03T07:13:46.201Z,99190.38
2022-11-03T07:14:49.864Z,99190.72
2022-11-03T07:15:52.738Z,99190.16
2022-11-03T07:16:58.076Z,99190.53
2022-11-03T07:18:03.145Z,99186.72
2022-11-03T07:19:09.138Z,99189.56
2022-11-03T07:20:14.847Z,99194.25
2022-11-03T07:21:33.529Z,99185.88
2022-11-03T07:22:37.175Z,99180.38
2022-11-03T07:23:42.128Z,99188.53
2022-11-03T07:24:49.358Z,99186.38
2022-11-03T07:25:54.760Z,99185.03
2022-11-03T07:27:04.157Z,99184.47
2022-11-03T07:28:07.007Z,99184.16
2022-11-03T07:29:13.903Z,99177.69
2022-11-03T07:30:21.374Z,99179.78
2022-11-03T07:31:27.120Z,99171.47
2022-11-03T07:32:31.760Z,99183.91
2022-11-03T07:33:36.812Z,99170.69
2022-11-03T07:34:40.515Z,99167.81
2022-11-03T07:38:20.284Z,99160.81
2022-11-03T07:39:24.047Z,99162.31
2022-11-03T07:40:27.773Z,99166.28
2022-11-03T07:41:35.036Z,99159.88
2022-11-03T07:42:38.008Z,99161.38
2022-11-03T07:43:43.690Z,99156.84
2022-11-03T07:44:47.418Z,99161.75
2022-11-03T07:45:50.754Z,99154.59
2022-11-03T07:46:54.396Z,99156.94
2022-11-03T07:48:00.461Z,99148.03
2022-11-03T07:49:10.037Z,99143.41
2022-11-03T07:50:15.621Z,99143.84
2022-11-03T07:51:22.704Z,99146.06
2022-11-03T07:52:27.665Z,99145.78
2022-11-03T07:53:37.539Z,99147.09
2022-11-03T07:54:41.295Z,99147.63
2022-11-03T07:55:45.525Z,99144.63
2022-11-03T07:56:52.268Z,99144.13
2022-11-03T07:57:56.127Z,99148.09
2022-11-03T07:59:02.549Z,99142.44
2022-11-03T08:00:10.276Z,99142.88
2022-11-03T08:01:26.025Z,99140.63
2022-11-03T08:02:33.586Z,99144.50
2022-11-03T08:03:42.941Z,99143.16
2022-11-03T08:04:48.299Z,99139.41
2022-11-03T08:05:51.053Z,99136.41
2022-11-03T08:06:55.587Z,99137.81
2022-11-03T08:07:58.248Z,99140.94
2022-11-03T08:09:02.002Z,99131.91
2022-11-03T08:10:07.018Z,99131.47
2022-11-03T08:11:11.101Z,99132.84
2022-11-03T08:12:13.844Z,99124.75
2022-11-03T08:13:17.540Z,99126.91
2022-11-03T08:14:21.211Z,99124.72
2022-11-03T08:15:24.189Z,99121.00
2022-11-03T08:16:28.020Z,99124.94
2022-11-03T08:17:30.670Z,99123.69
2022-11-03T08:18:34.417Z,99119.84
2022-11-03T08:19:38.205Z,99127.22
2022-11-03T08:20:42.289Z,99123.31
2022-11-03T08:21:45.941Z,99116.00
2022-11-03T08:23:04.940Z,99121.72
2022-11-03T08:24:12.541Z,99123.91
2022-11-03T08:25:15.327Z,99117.44
2022-11-03T08:26:19.231Z,99119.72
2022-11-03T08:27:23.050Z,99114.91
2022-11-03T08:28:25.799Z,99113.63
2022-11-03T08:29:29.620Z,99108.94
2022-11-03T08:30:32.297Z,99115.59
2022-11-03T08:31:36.010Z,99116.09
2022-11-03T08:32:38.764Z,99118.38
2022-11-03T08:33:42.592Z,99111.19
2022-11-03T08:34:46.486Z,99113.47
2022-11-03T08:35:51.689Z,99102.69
2022-11-03T08:36:54.340Z,99101.53
2022-11-03T08:37:58.129Z,99096.81
2022-11-03T08:39:01.923Z,99099.91
2022-11-03T08:40:05.281Z,99099.47
2022-11-03T08:41:09.044Z,99099.13
2022-11-03T08:42:11.869Z,99092.75
2022-11-03T08:43:15.658Z,99094.91
2022-11-03T08:44:19.577Z,99100.59
2022-11-03T08:45:22.272Z,99096.72
2022-11-03T08:46:26.128Z,99086.06
2022-11-03T08:47:28.955Z,99094.38
2022-11-03T08:48:32.654Z,99091.31
2022-11-03T08:49:35.347Z,99089.19
2022-11-03T08:50:39.250Z,99088.03
2022-11-03T08:51:45.038Z,99089.44
2022-11-03T08:52:47.980Z,99089.94
2022-11-03T08:53:54.246Z,99087.81
2022-11-03T08:56:10.306Z,99084.38
2022-11-03T08:57:15.824Z,99077.88
2022-11-03T08:58:19.521Z,99072.28
2022-11-03T08:59:22.191Z,99078.00
2022-11-03T09:00:25.916Z,99067.28
2022-11-03T09:01:29.672Z,99073.97
2022-11-03T09:02:32.524Z,99071.97
2022-11-03T09:03:36.306Z,99074.22
2022-11-03T09:04:39.000Z,99077.31
2022-11-03T09:05:42.967Z,99070.88
2022-11-03T09:06:47.067Z,99076.56
2022-11-03T09:10:42.179Z,99058.50
2022-11-03T09:11:45.278Z,99065.03
2022-11-03T09:12:48.997Z,99060.16
2022-11-03T09:13:51.677Z,99053.47
2022-11-03T09:14:55.340Z,99051.91
2022-11-03T09:15:58.049Z,99053.66
2022-11-03T09:18:10.601Z,99057.38
2022-11-03T09:19:13.501Z,99055.06
2022-11-03T09:20:17.197Z,99053.63
2022-11-03T09:21:19.830Z,99052.28
2022-11-03T09:22:25.037Z,99048.47
2022-11-03T09:23:28.730Z,99055.66
2022-11-03T09:24:31.430Z,99059.47
2022-11-03T09:25:35.179Z,99051.34
2022-11-03T09:26:38.686Z,99047.38
2022-11-03T09:27:42.597Z,99047.94
2022-11-03T09:28:46.379Z,99047.72
2022-11-03T09:30:11.617Z,99049.22
2022-11-03T09:31:14.159Z,99045.56
2022-11-03T09:32:23.038Z,99039.09
2022-11-03T09:33:27.459Z,99046.56
2022-11-03T09:34:30.568Z,99044.50
2022-11-03T09:35:34.297Z,99040.69
2022-11-03T09:36:37.021Z,99043.84
2022-11-03T09:37:42.307Z,99040.97
2022-11-03T09:38:45.181Z,99041.66
2022-11-03T09:39:48.866Z,99041.16
2022-11-03T09:40:52.689Z,99034.81
2022-11-03T09:41:59.292Z,99032.63
2022-11-03T09:43:03.357Z,99028.81
2022-11-03T09:44:07.382Z,99044.13
2022-11-03T09:45:12.203Z,99032.38
2022-11-03T09:46:16.738Z,99025.09
2022-11-03T09:47:25.296Z,99017.97
2022-11-03T09:48:30.508Z,99023.75
2022-11-03T09:49:35.107Z,99020.88
2022-11-03T09:50:38.241Z,99018.09
2022-11-03T09:51:43.209Z,99012.59
2022-11-03T09:52:51.469Z,99011.63
2022-11-03T09:53:56.928Z,99010.66
2022-11-03T09:55:00.934Z,99012.22
2022-11-03T09:56:03.639Z,99012.88
2022-11-03T09:57:13.109Z,99016.06
2022-11-03T09:58:17.801Z,99009.59
2022-11-03T09:59:23.340Z,99007.38
2022-11-03T10:00:27.576Z,99017.47
2022-11-03T10:01:31.323Z,98996.91
2022-11-03T10:02:39.016Z,98999.13
2022-11-03T10:03:41.809Z,99002.16
2022-11-03T10:04:45.700Z,98995.00
2022-11-03T10:05:49.685Z,98995.53
2022-11-03T10:06:52.419Z,98992.81
2022-11-03T10:08:00.435Z,99005.50
2022-11-03T10:09:03.197Z,99001.75
2022-11-03T10:10:07.890Z,98994.56
2022-11-03T10:11:11.879Z,98985.75
2022-11-03T10:12:15.766Z,98988.09
2022-11-03T10:13:30.784Z,98984.22
2022-11-03T10:14:34.626Z,98986.69
2022-11-03T10:15:37.339Z,98984.78
2022-11-03T10:16:43.038Z,98978.44
2022-11-03T10:17:47.558Z,98993.09
2022-11-03T10:18:51.619Z,98980.66
2022-11-03T10:19:58.228Z,98980.50
2022-11-03T10:21:07.167Z,98974.31
2022-11-03T10:22:09.979Z,98979.41
2022-11-03T10:23:15.099Z,98977.63
2022-11-03T10:24:18.975Z,98981.88
2022-11-03T10:25:44.245Z,98978.16
2022-11-03T10:26:48.128Z,98968.50
2022-11-03T10:27:51.831Z,98967.53
2022-11-03T10:28:59.519Z,98962.84
2022-11-03T10:30:10.890Z,98964.34
2022-11-03T10:31:21.534Z,98958.25
2022-11-03T10:32:33.720Z,98957.28
2022-11-03T10:33:39.337Z,98955.50
2022-11-03T10:34:43.155Z,98953.56
2022-11-03T10:35:45.827Z,98945.56
2022-11-03T10:36:50.711Z,98949.81
2022-11-03T10:37:53.549Z,98946.38
2022-11-03T10:38:58.858Z,98943.59
2022-11-03T10:40:01.491Z,98936.44
2022-11-03T10:41:15.019Z,98935.19
2022-11-03T10:42:23.199Z,98933.50
2022-11-03T10:43:25.901Z,98935.84
2022-11-03T10:44:30.299Z,98930.59
2022-11-03T10:45:33.979Z,98932.25
2022-11-03T10:46:50.818Z,98933.63
2022-11-03T10:48:02.018Z,98929.19
2022-11-03T10:50:24.119Z,98922.69
2022-11-03T10:51:26.779Z,98931.94
2022-11-03T10:52:31.511Z,98917.69
2022-11-03T10:53:34.392Z,98924.47
2022-11-03T10:54:39.610Z,98923.50
2022-11-03T10:55:43.389Z,98917.13
2022-11-03T10:56:48.339Z,98922.22
2022-11-03T10:57:53.137Z,98910.75
2022-11-03T11:00:09.644Z,98913.91
2022-11-03T11:01:13.595Z,98921.50
2022-11-03T11:02:18.739Z,98908.09
2022-11-03T11:03:22.611Z,98914.84
2022-11-03T11:04:25.401Z,98905.84
2022-11-03T11:05:29.339Z,98913.56
2022-11-03T11:06:33.100Z,98908.16
2022-11-03T11:07:40.384Z,98907.19
2022-11-03T11:08:43.189Z,98913.41
2022-11-03T11:09:48.490Z,98910.50
2022-11-03T11:10:52.369Z,98902.47
2022-11-03T11:12:07.073Z,98904.13
2022-11-03T11:13:29.020Z,98902.31
2022-11-03T11:14:40.938Z,98904.66
2022-11-03T11:15:46.277Z,98898.31
2022-11-03T11:16:51.191Z,98889.13
2022-11-03T11:17:54.918Z,98897.56
2022-11-03T11:19:02.589Z,98891.03
2022-11-03T11:20:37.620Z,98883.66
2022-11-03T11:22:04.704Z,98879.09
2022-11-03T11:23:44.808Z,98875.50
2022-11-03T11:25:03.587Z,98863.03
2022-11-03T11:26:12.223Z,98870.91
2022-11-03T11:28:07.473Z,98864.56
2022-11-03T11:29:44.782Z,98851.56
2022-11-03T11:30:57.179Z,98849.78
2022-11-03T11:32:00.929Z,98852.25
2022-11-03T11:33:15.417Z,98851.13
2022-11-03T11:34:40.685Z,98846.38
2022-11-03T11:36:21.299Z,98845.25
2022-11-03T11:37:34.560Z,98835.25
2022-11-03T11:38:58.220Z,98837.34
2022-11-03T11:40:04.191Z,98833.13
2022-11-03T11:41:06.960Z,98837.47
2022-11-03T11:42:14.732Z,98833.75
2022-11-03T11:43:27.418Z,98833.34
2022-11-03T11:44:59.091Z,98827.69
2022-11-03T11:46:42.588Z,98828.03
2022-11-03T11:47:52.257Z,98817.06
2022-11-03T11:49:03.721Z,98820.41
2022-11-03T11:50:28.214Z,98819.28
2022-11-03T11:51:35.899Z,98818.97
2022-11-03T11:52:42.880Z,98816.84
2022-11-03T11:53:50.941Z,98812.59
2022-11-03T11:54:57.249Z,98806.22
2022-11-03T11:56:03.822Z,98807.44
2022-11-03T11:57:17.661Z,98808.09
2022-11-03T11:58:32.606Z,98809.75
2022-11-03T11:59:36.391Z,98806.78
2022-11-03T12:00:41.581Z,98802.84
2022-11-03T12:01:45.395Z,98798.09
2022-11-03T12:02:48.788Z,98793.63
2022-11-03T12:03:53.811Z,98791.34
2022-11-03T12:05:01.473Z,98791.66
2022-11-03T12:06:05.370Z,98792.94
2022-11-03T12:07:13.919Z,98795.91
2022-11-03T12:08:21.439Z,98789.16
2022-11-03T12:09:27.288Z,98784.88
2022-11-03T12:10:31.603Z,98783.06
2022-11-03T12:11:48.324Z,98780.44
2022-11-03T12:12:51.947Z,98777.81
2022-11-03T12:13:55.772Z,98781.78
2022-11-03T12:14:58.541Z,98783.25
2022-11-03T12:16:02.258Z,98775.84
2022-11-03T12:17:34.306Z,98784.25
2022-11-03T12:18:41.681Z,98771.91
2022-11-03T12:19:48.547Z,98775.53
2022-11-03T12:20:51.395Z,98774.88
2022-11-03T12:21:55.957Z,98775.69
2022-11-03T12:22:59.629Z,98772.91
2022-11-03T12:24:02.275Z,98764.03
2022-11-03T12:25:08.812Z,98760.72
2022-11-03T12:26:19.799Z,98769.94
2022-11-03T12:27:44.687Z,98765.47
2022-11-03T12:28:48.352Z,98762.63
2022-11-03T12:29:51.598Z,98764.91
2022-11-03T12:30:55.347Z,98768.03
2022-11-03T12:31:59.087Z,98765.88
2022-11-03T12:33:02.854Z,98762.56
2022-11-03T12:34:05.625Z,98760.09
2022-11-03T12:35:11.330Z,98755.66
2022-11-03T12:36:15.049Z,98747.28
2022-11-03T12:37:17.799Z,98742.53
2022-11-03T12:38:21.628Z,98737.59
2022-11-03T12:39:24.289Z,98744.84
2022-11-03T12:40:28.085Z,98739.31
2022-11-03T12:41:30.749Z,98739.00
2022-11-03T12:42:35.286Z,98735.38
2022-11-03T12:43:40.500Z,98734.22
2022-11-03T12:44:43.976Z,98739.00
2022-11-03T12:45:47.937Z,98732.75
2022-11-03T12:46:50.647Z,98736.03
2022-11-03T12:47:54.327Z,98734.56
2022-11-03T12:48:57.126Z,98735.41
2022-11-03T12:50:00.952Z,98733.59
2022-11-03T12:51:04.783Z,98725.84
2022-11-03T12:52:08.750Z,98727.53
2022-11-03T12:53:12.699Z,98717.63
2022-11-03T12:54:15.369Z,98719.25
2022-11-03T12:55:19.133Z,98714.47
2022-11-03T12:56:21.839Z,98718.56
2022-11-03T12:57:25.598Z,98713.44
2022-11-03T12:58:29.335Z,98709.75
2022-11-03T12:59:33.518Z,98713.19
2022-11-03T13:00:37.307Z,98707.22
2022-11-03T13:01:41.182Z,98715.28
2022-11-03T13:02:44.129Z,98714.13
2022-11-03T13:03:48.002Z,98701.38
2022-11-03T13:04:50.679Z,98706.81
2022-11-03T13:05:54.441Z,98710.72
2022-11-03T13:06:57.202Z,98702.16